sensor_id;sensor_type;location;lat;lon;timestamp;P1;durP1;ratioP1;P2;durP2;ratioP2
10469;SDS011;5282;47.052;15.458;2022-12-07T00:00:18;13.33;;;11.77;;
10469;SDS011;5282;47.052;15.458;2022-12-07T00:02:45;13.57;;;11.90;;
10469;SDS011;5282;47.052;15.458;2022-12-07T00:05:13;13.40;;;12.03;;
10469;SDS011;5282;47.052;15.458;2022-12-07T00:07:42;13.83;;;11.70;;
10469;SDS011;5282;47.052;15.458;2022-12-07T00:10:09;13.27;;;11.90;;
10469;SDS011;5282;47.052;15.458;2022-12-07T00:12:37;13.60;;;12.30;;
10469;SDS011;5282;47.052;15.458;2022-12-07T00:15:05;13.83;;;12.33;;
10469;SDS011;5282;47.052;15.458;2022-12-07T00:17:32;15.17;;;12.33;;
10469;SDS011;5282;47.052;15.458;2022-12-07T00:20:00;15.97;;;13.73;;
10469;SDS011;5282;47.052;15.458;2022-12-07T00:22:27;18.60;;;14.07;;
10469;SDS011;5282;47.052;15.458;2022-12-07T00:24:56;16.33;;;13.30;;
10469;SDS011;5282;47.052;15.458;2022-12-07T00:27:23;14.00;;;12.60;;
10469;SDS011;5282;47.052;15.458;2022-12-07T00:29:50;15.00;;;13.40;;
10469;SDS011;5282;47.052;15.458;2022-12-07T00:32:17;17.27;;;13.33;;
10469;SDS011;5282;47.052;15.458;2022-12-07T00:34:44;14.00;;;12.40;;
10469;SDS011;5282;47.052;15.458;2022-12-07T00:37:12;17.40;;;12.73;;
10469;SDS011;5282;47.052;15.458;2022-12-07T00:39:38;14.00;;;12.47;;
10469;SDS011;5282;47.052;15.458;2022-12-07T00:42:07;13.60;;;12.20;;
10469;SDS011;5282;47.052;15.458;2022-12-07T00:44:33;14.37;;;12.63;;
10469;SDS011;5282;47.052;15.458;2022-12-07T00:47:00;16.40;;;12.67;;
10469;SDS011;5282;47.052;15.458;2022-12-07T00:49:31;14.53;;;12.63;;
10469;SDS011;5282;47.052;15.458;2022-12-07T00:51:58;13.13;;;11.70;;
10469;SDS011;5282;47.052;15.458;2022-12-07T00:54:25;14.73;;;13.10;;
10469;SDS011;5282;47.052;15.458;2022-12-07T00:56:52;13.50;;;12.20;;
10469;SDS011;5282;47.052;15.458;2022-12-07T00:59:20;14.40;;;11.93;;
10469;SDS011;5282;47.052;15.458;2022-12-07T01:01:49;14.33;;;12.40;;
10469;SDS011;5282;47.052;15.458;2022-12-07T01:04:19;13.67;;;11.97;;
10469;SDS011;5282;47.052;15.458;2022-12-07T01:06:50;14.17;;;12.40;;
10469;SDS011;5282;47.052;15.458;2022-12-07T01:09:25;14.87;;;13.20;;
10469;SDS011;5282;47.052;15.458;2022-12-07T01:11:54;14.77;;;12.90;;
10469;SDS011;5282;47.052;15.458;2022-12-07T01:14:31;16.87;;;13.17;;
10469;SDS011;5282;47.052;15.458;2022-12-07T01:17:03;14.13;;;12.00;;
10469;SDS011;5282;47.052;15.458;2022-12-07T01:19:34;17.20;;;13.33;;
10469;SDS011;5282;47.052;15.458;2022-12-07T01:22:05;15.40;;;13.03;;
10469;SDS011;5282;47.052;15.458;2022-12-07T01:24:34;15.97;;;12.93;;
10469;SDS011;5282;47.052;15.458;2022-12-07T01:27:05;15.40;;;13.03;;
10469;SDS011;5282;47.052;15.458;2022-12-07T01:29:37;13.53;;;12.00;;
10469;SDS011;5282;47.052;15.458;2022-12-07T01:32:06;12.87;;;11.47;;
10469;SDS011;5282;47.052;15.458;2022-12-07T01:34:34;14.73;;;11.83;;
10469;SDS011;5282;47.052;15.458;2022-12-07T01:37:11;13.67;;;12.20;;
10469;SDS011;5282;47.052;15.458;2022-12-07T01:39:39;14.63;;;12.17;;
10469;SDS011;5282;47.052;15.458;2022-12-07T01:42:12;13.97;;;12.47;;
10469;SDS011;5282;47.052;15.458;2022-12-07T01:47:54;16.17;;;11.83;;
10469;SDS011;5282;47.052;15.458;2022-12-07T01:50:27;13.27;;;11.87;;
10469;SDS011;5282;47.052;15.458;2022-12-07T01:53:05;14.50;;;12.27;;
10469;SDS011;5282;47.052;15.458;2022-12-07T01:55:42;13.63;;;12.20;;
10469;SDS011;5282;47.052;15.458;2022-12-07T01:58:14;13.43;;;12.03;;
10469;SDS011;5282;47.052;15.458;2022-12-07T02:00:44;14.97;;;12.47;;
10469;SDS011;5282;47.052;15.458;2022-12-07T02:03:15;15.10;;;12.30;;
10469;SDS011;5282;47.052;15.458;2022-12-07T02:05:46;14.63;;;12.40;;
10469;SDS011;5282;47.052;15.458;2022-12-07T02:08:18;17.43;;;14.53;;
10469;SDS011;5282;47.052;15.458;2022-12-07T02:10:46;15.73;;;13.03;;
10469;SDS011;5282;47.052;15.458;2022-12-07T02:13:15;15.40;;;13.23;;
10469;SDS011;5282;47.052;15.458;2022-12-07T02:15:51;16.10;;;13.07;;
10469;SDS011;5282;47.052;15.458;2022-12-07T02:18:36;15.73;;;12.90;;
10469;SDS011;5282;47.052;15.458;2022-12-07T02:21:12;16.57;;;13.03;;
10469;SDS011;5282;47.052;15.458;2022-12-07T02:23:56;16.73;;;12.90;;
10469;SDS011;5282;47.052;15.458;2022-12-07T02:26:43;16.63;;;13.63;;
10469;SDS011;5282;47.052;15.458;2022-12-07T02:29:37;13.83;;;12.37;;
10469;SDS011;5282;47.052;15.458;2022-12-07T02:32:10;16.87;;;12.50;;
10469;SDS011;5282;47.052;15.458;2022-12-07T02:34:44;14.57;;;12.00;;
10469;SDS011;5282;47.052;15.458;2022-12-07T02:37:25;14.33;;;11.97;;
10469;SDS011;5282;47.052;15.458;2022-12-07T02:40:01;14.87;;;12.20;;
10469;SDS011;5282;47.052;15.458;2022-12-07T02:42:36;14.40;;;12.13;;
10469;SDS011;5282;47.052;15.458;2022-12-07T02:45:08;15.47;;;12.27;;
10469;SDS011;5282;47.052;15.458;2022-12-07T02:47:40;15.00;;;11.60;;
10469;SDS011;5282;47.052;15.458;2022-12-07T02:50:10;13.13;;;10.93;;
10469;SDS011;5282;47.052;15.458;2022-12-07T02:52:40;15.53;;;11.87;;
10469;SDS011;5282;47.052;15.458;2022-12-07T02:55:07;13.33;;;11.83;;
10469;SDS011;5282;47.052;15.458;2022-12-07T02:57:40;13.70;;;11.50;;
10469;SDS011;5282;47.052;15.458;2022-12-07T03:00:17;15.43;;;12.83;;
10469;SDS011;5282;47.052;15.458;2022-12-07T03:02:50;14.30;;;12.00;;
10469;SDS011;5282;47.052;15.458;2022-12-07T03:05:36;13.97;;;12.17;;
10469;SDS011;5282;47.052;15.458;2022-12-07T03:08:23;14.83;;;11.30;;
10469;SDS011;5282;47.052;15.458;2022-12-07T03:11:00;13.93;;;11.77;;
10469;SDS011;5282;47.052;15.458;2022-12-07T03:13:33;12.60;;;11.20;;
10469;SDS011;5282;47.052;15.458;2022-12-07T03:16:15;15.23;;;11.30;;
10469;SDS011;5282;47.052;15.458;2022-12-07T03:18:46;12.40;;;10.47;;
10469;SDS011;5282;47.052;15.458;2022-12-07T03:21:19;10.93;;;9.83;;
10469;SDS011;5282;47.052;15.458;2022-12-07T03:23:51;11.30;;;9.57;;
10469;SDS011;5282;47.052;15.458;2022-12-07T03:26:24;11.27;;;10.17;;
10469;SDS011;5282;47.052;15.458;2022-12-07T03:28:58;12.07;;;8.97;;
10469;SDS011;5282;47.052;15.458;2022-12-07T03:31:32;10.67;;;9.57;;
10469;SDS011;5282;47.052;15.458;2022-12-07T03:34:09;11.13;;;9.90;;
10469;SDS011;5282;47.052;15.458;2022-12-07T03:36:43;10.13;;;9.20;;
10469;SDS011;5282;47.052;15.458;2022-12-07T03:39:17;10.07;;;9.10;;
10469;SDS011;5282;47.052;15.458;2022-12-07T03:41:51;10.90;;;9.80;;
10469;SDS011;5282;47.052;15.458;2022-12-07T03:44:19;9.50;;;8.60;;
10469;SDS011;5282;47.052;15.458;2022-12-07T03:46:50;9.67;;;8.70;;
10469;SDS011;5282;47.052;15.458;2022-12-07T03:49:27;10.00;;;9.00;;
10469;SDS011;5282;47.052;15.458;2022-12-07T03:52:06;10.40;;;9.03;;
10469;SDS011;5282;47.052;15.458;2022-12-07T03:54:40;10.73;;;9.63;;
10469;SDS011;5282;47.052;15.458;2022-12-07T03:57:11;10.63;;;8.70;;
10469;SDS011;5282;47.052;15.458;2022-12-07T03:59:39;9.07;;;8.13;;
10469;SDS011;5282;47.052;15.458;2022-12-07T04:02:10;10.20;;;9.20;;
10469;SDS011;5282;47.052;15.458;2022-12-07T04:04:39;9.50;;;8.60;;
10469;SDS011;5282;47.052;15.458;2022-12-07T04:07:06;9.30;;;8.40;;
10469;SDS011;5282;47.052;15.458;2022-12-07T04:09:34;8.63;;;7.83;;
10469;SDS011;5282;47.052;15.458;2022-12-07T04:12:01;10.40;;;8.83;;
10469;SDS011;5282;47.052;15.458;2022-12-07T04:14:30;9.93;;;8.87;;
10469;SDS011;5282;47.052;15.458;2022-12-07T04:16:57;9.00;;;8.10;;
10469;SDS011;5282;47.052;15.458;2022-12-07T04:19:27;8.67;;;7.77;;
10469;SDS011;5282;47.052;15.458;2022-12-07T04:21:57;9.00;;;8.20;;
10469;SDS011;5282;47.052;15.458;2022-12-07T04:24:25;8.93;;;8.03;;
10469;SDS011;5282;47.052;15.458;2022-12-07T04:26:54;9.13;;;7.80;;
10469;SDS011;5282;47.052;15.458;2022-12-07T04:29:21;8.90;;;8.00;;
10469;SDS011;5282;47.052;15.458;2022-12-07T04:31:50;8.80;;;8.00;;
10469;SDS011;5282;47.052;15.458;2022-12-07T04:34:18;10.90;;;8.20;;
10469;SDS011;5282;47.052;15.458;2022-12-07T04:36:47;10.80;;;8.37;;
10469;SDS011;5282;47.052;15.458;2022-12-07T04:39:17;8.57;;;7.83;;
10469;SDS011;5282;47.052;15.458;2022-12-07T04:41:46;8.93;;;8.07;;
10469;SDS011;5282;47.052;15.458;2022-12-07T04:44:14;8.97;;;8.20;;
10469;SDS011;5282;47.052;15.458;2022-12-07T04:46:43;9.00;;;8.27;;
10469;SDS011;5282;47.052;15.458;2022-12-07T04:49:12;9.90;;;8.90;;
10469;SDS011;5282;47.052;15.458;2022-12-07T04:51:40;8.30;;;7.60;;
10469;SDS011;5282;47.052;15.458;2022-12-07T04:54:08;8.73;;;7.93;;
10469;SDS011;5282;47.052;15.458;2022-12-07T04:56:38;8.87;;;7.97;;
10469;SDS011;5282;47.052;15.458;2022-12-07T04:59:05;8.80;;;8.00;;
10469;SDS011;5282;47.052;15.458;2022-12-07T05:01:35;11.50;;;9.30;;
10469;SDS011;5282;47.052;15.458;2022-12-07T05:04:03;10.47;;;8.77;;
10469;SDS011;5282;47.052;15.458;2022-12-07T05:06:30;8.70;;;8.00;;
10469;SDS011;5282;47.052;15.458;2022-12-07T05:08:57;9.23;;;8.43;;
10469;SDS011;5282;47.052;15.458;2022-12-07T05:11:26;8.97;;;8.27;;
10469;SDS011;5282;47.052;15.458;2022-12-07T05:14:07;9.50;;;8.43;;
10469;SDS011;5282;47.052;15.458;2022-12-07T05:16:37;12.60;;;9.00;;
10469;SDS011;5282;47.052;15.458;2022-12-07T05:19:06;9.67;;;8.77;;
10469;SDS011;5282;47.052;15.458;2022-12-07T05:21:33;10.60;;;9.40;;
10469;SDS011;5282;47.052;15.458;2022-12-07T05:24:01;9.57;;;8.57;;
10469;SDS011;5282;47.052;15.458;2022-12-07T05:26:29;10.50;;;8.87;;
10469;SDS011;5282;47.052;15.458;2022-12-07T05:28:57;11.03;;;8.30;;
10469;SDS011;5282;47.052;15.458;2022-12-07T05:31:25;9.97;;;8.97;;
10469;SDS011;5282;47.052;15.458;2022-12-07T05:33:53;12.97;;;9.20;;
10469;SDS011;5282;47.052;15.458;2022-12-07T05:36:21;9.70;;;8.77;;
10469;SDS011;5282;47.052;15.458;2022-12-07T05:38:50;10.63;;;9.53;;
10469;SDS011;5282;47.052;15.458;2022-12-07T05:41:18;10.20;;;9.03;;
10469;SDS011;5282;47.052;15.458;2022-12-07T05:44:05;10.70;;;8.67;;
10469;SDS011;5282;47.052;15.458;2022-12-07T05:46:32;9.83;;;8.83;;
10469;SDS011;5282;47.052;15.458;2022-12-07T05:49:00;9.23;;;8.40;;
10469;SDS011;5282;47.052;15.458;2022-12-07T05:51:28;10.20;;;8.97;;
10469;SDS011;5282;47.052;15.458;2022-12-07T05:53:55;10.13;;;8.83;;
10469;SDS011;5282;47.052;15.458;2022-12-07T05:56:23;12.40;;;9.90;;
10469;SDS011;5282;47.052;15.458;2022-12-07T05:58:50;14.50;;;10.40;;
10469;SDS011;5282;47.052;15.458;2022-12-07T06:01:36;10.17;;;9.17;;
10469;SDS011;5282;47.052;15.458;2022-12-07T06:04:03;9.17;;;8.33;;
10469;SDS011;5282;47.052;15.458;2022-12-07T06:06:30;15.33;;;9.60;;
10469;SDS011;5282;47.052;15.458;2022-12-07T06:08:57;9.80;;;8.77;;
10469;SDS011;5282;47.052;15.458;2022-12-07T06:11:24;10.13;;;9.13;;
10469;SDS011;5282;47.052;15.458;2022-12-07T06:14:08;17.57;;;9.80;;
10469;SDS011;5282;47.052;15.458;2022-12-07T06:16:38;11.33;;;10.13;;
10469;SDS011;5282;47.052;15.458;2022-12-07T06:19:05;14.57;;;9.37;;
10469;SDS011;5282;47.052;15.458;2022-12-07T06:21:31;10.40;;;9.40;;
10469;SDS011;5282;47.052;15.458;2022-12-07T06:23:58;13.13;;;10.23;;
10469;SDS011;5282;47.052;15.458;2022-12-07T06:26:25;11.20;;;10.00;;
10469;SDS011;5282;47.052;15.458;2022-12-07T06:28:52;12.33;;;10.60;;
10469;SDS011;5282;47.052;15.458;2022-12-07T06:31:19;12.63;;;10.23;;
10469;SDS011;5282;47.052;15.458;2022-12-07T06:33:48;15.00;;;10.40;;
10469;SDS011;5282;47.052;15.458;2022-12-07T06:36:15;11.83;;;10.63;;
10469;SDS011;5282;47.052;15.458;2022-12-07T06:38:41;13.27;;;10.40;;
10469;SDS011;5282;47.052;15.458;2022-12-07T06:41:08;19.70;;;11.07;;
10469;SDS011;5282;47.052;15.458;2022-12-07T06:43:35;16.93;;;10.33;;
10469;SDS011;5282;47.052;15.458;2022-12-07T06:46:02;12.70;;;10.80;;
10469;SDS011;5282;47.052;15.458;2022-12-07T06:48:29;14.30;;;11.03;;
10469;SDS011;5282;47.052;15.458;2022-12-07T06:50:57;20.00;;;11.70;;
10469;SDS011;5282;47.052;15.458;2022-12-07T06:53:24;18.53;;;10.77;;
10469;SDS011;5282;47.052;15.458;2022-12-07T06:55:53;17.77;;;11.73;;
10469;SDS011;5282;47.052;15.458;2022-12-07T06:58:20;15.43;;;11.43;;
10469;SDS011;5282;47.052;15.458;2022-12-07T07:00:47;15.93;;;11.60;;
10469;SDS011;5282;47.052;15.458;2022-12-07T07:03:15;14.13;;;11.23;;
10469;SDS011;5282;47.052;15.458;2022-12-07T07:05:43;17.97;;;12.30;;
10469;SDS011;5282;47.052;15.458;2022-12-07T07:08:12;17.10;;;11.90;;
10469;SDS011;5282;47.052;15.458;2022-12-07T07:10:39;17.23;;;12.57;;
10469;SDS011;5282;47.052;15.458;2022-12-07T07:13:06;17.27;;;13.07;;
10469;SDS011;5282;47.052;15.458;2022-12-07T07:15:34;16.50;;;12.03;;
10469;SDS011;5282;47.052;15.458;2022-12-07T07:18:04;17.27;;;12.43;;
10469;SDS011;5282;47.052;15.458;2022-12-07T07:20:31;16.33;;;11.63;;
10469;SDS011;5282;47.052;15.458;2022-12-07T07:22:58;13.57;;;12.10;;
10469;SDS011;5282;47.052;15.458;2022-12-07T07:25:26;17.47;;;11.90;;
10469;SDS011;5282;47.052;15.458;2022-12-07T07:27:53;13.60;;;11.47;;
10469;SDS011;5282;47.052;15.458;2022-12-07T07:30:20;16.43;;;12.67;;
10469;SDS011;5282;47.052;15.458;2022-12-07T07:32:47;15.40;;;11.83;;
10469;SDS011;5282;47.052;15.458;2022-12-07T07:35:15;16.13;;;12.17;;
10469;SDS011;5282;47.052;15.458;2022-12-07T07:37:42;14.33;;;12.23;;
10469;SDS011;5282;47.052;15.458;2022-12-07T07:40:09;15.17;;;13.03;;
10469;SDS011;5282;47.052;15.458;2022-12-07T07:42:39;17.53;;;12.70;;
10469;SDS011;5282;47.052;15.458;2022-12-07T07:45:07;17.63;;;13.53;;
10469;SDS011;5282;47.052;15.458;2022-12-07T07:47:37;17.80;;;12.43;;
10469;SDS011;5282;47.052;15.458;2022-12-07T07:50:04;18.07;;;12.47;;
10469;SDS011;5282;47.052;15.458;2022-12-07T07:52:32;19.83;;;12.80;;
10469;SDS011;5282;47.052;15.458;2022-12-07T07:54:59;18.00;;;13.83;;
10469;SDS011;5282;47.052;15.458;2022-12-07T07:57:26;18.50;;;13.87;;
10469;SDS011;5282;47.052;15.458;2022-12-07T07:59:54;22.40;;;14.10;;
10469;SDS011;5282;47.052;15.458;2022-12-07T08:02:21;23.90;;;13.80;;
10469;SDS011;5282;47.052;15.458;2022-12-07T08:04:48;21.90;;;14.33;;
10469;SDS011;5282;47.052;15.458;2022-12-07T08:07:15;26.77;;;14.93;;
10469;SDS011;5282;47.052;15.458;2022-12-07T08:09:42;29.37;;;14.97;;
10469;SDS011;5282;47.052;15.458;2022-12-07T08:12:09;26.63;;;16.73;;
10469;SDS011;5282;47.052;15.458;2022-12-07T08:14:36;31.20;;;17.57;;
10469;SDS011;5282;47.052;15.458;2022-12-07T08:17:04;26.27;;;14.57;;
10469;SDS011;5282;47.052;15.458;2022-12-07T08:19:33;25.73;;;14.17;;
10469;SDS011;5282;47.052;15.458;2022-12-07T08:22:01;23.07;;;14.33;;
10469;SDS011;5282;47.052;15.458;2022-12-07T08:24:32;23.60;;;15.03;;
10469;SDS011;5282;47.052;15.458;2022-12-07T08:26:59;25.23;;;15.97;;
10469;SDS011;5282;47.052;15.458;2022-12-07T08:29:29;25.13;;;15.20;;
10469;SDS011;5282;47.052;15.458;2022-12-07T08:31:56;24.27;;;14.40;;
10469;SDS011;5282;47.052;15.458;2022-12-07T08:34:27;24.90;;;15.53;;
10469;SDS011;5282;47.052;15.458;2022-12-07T08:36:54;27.83;;;15.50;;
10469;SDS011;5282;47.052;15.458;2022-12-07T08:39:21;23.20;;;15.80;;
10469;SDS011;5282;47.052;15.458;2022-12-07T08:41:48;26.80;;;15.07;;
10469;SDS011;5282;47.052;15.458;2022-12-07T08:44:15;28.67;;;16.20;;
10469;SDS011;5282;47.052;15.458;2022-12-07T08:46:44;23.13;;;14.47;;
10469;SDS011;5282;47.052;15.458;2022-12-07T08:49:15;25.60;;;15.00;;
10469;SDS011;5282;47.052;15.458;2022-12-07T08:51:47;27.30;;;15.93;;
10469;SDS011;5282;47.052;15.458;2022-12-07T08:54:15;27.60;;;16.00;;
10469;SDS011;5282;47.052;15.458;2022-12-07T08:56:43;31.53;;;15.87;;
10469;SDS011;5282;47.052;15.458;2022-12-07T08:59:12;28.07;;;16.73;;
10469;SDS011;5282;47.052;15.458;2022-12-07T09:01:41;27.10;;;16.43;;
10469;SDS011;5282;47.052;15.458;2022-12-07T09:04:08;28.43;;;16.30;;
10469;SDS011;5282;47.052;15.458;2022-12-07T09:06:35;27.67;;;16.37;;
10469;SDS011;5282;47.052;15.458;2022-12-07T09:09:03;25.33;;;16.30;;
10469;SDS011;5282;47.052;15.458;2022-12-07T09:11:31;24.53;;;15.10;;
10469;SDS011;5282;47.052;15.458;2022-12-07T09:13:58;29.83;;;17.33;;
10469;SDS011;5282;47.052;15.458;2022-12-07T09:16:25;32.57;;;17.87;;
10469;SDS011;5282;47.052;15.458;2022-12-07T09:18:52;29.67;;;17.43;;
10469;SDS011;5282;47.052;15.458;2022-12-07T09:21:19;27.93;;;17.47;;
10469;SDS011;5282;47.052;15.458;2022-12-07T09:23:45;28.17;;;17.40;;
10469;SDS011;5282;47.052;15.458;2022-12-07T09:26:14;28.60;;;16.77;;
10469;SDS011;5282;47.052;15.458;2022-12-07T09:28:41;28.20;;;16.80;;
10469;SDS011;5282;47.052;15.458;2022-12-07T09:31:09;25.90;;;17.00;;
10469;SDS011;5282;47.052;15.458;2022-12-07T09:33:36;28.07;;;17.60;;
10469;SDS011;5282;47.052;15.458;2022-12-07T09:36:03;30.37;;;18.10;;
10469;SDS011;5282;47.052;15.458;2022-12-07T09:38:33;26.60;;;17.33;;
10469;SDS011;5282;47.052;15.458;2022-12-07T09:41:03;31.77;;;17.73;;
10469;SDS011;5282;47.052;15.458;2022-12-07T09:43:33;29.50;;;18.43;;
10469;SDS011;5282;47.052;15.458;2022-12-07T09:46:02;29.70;;;18.23;;
10469;SDS011;5282;47.052;15.458;2022-12-07T09:48:31;45.70;;;26.57;;
10469;SDS011;5282;47.052;15.458;2022-12-07T09:51:00;36.03;;;21.70;;
10469;SDS011;5282;47.052;15.458;2022-12-07T09:53:29;28.80;;;19.70;;
10469;SDS011;5282;47.052;15.458;2022-12-07T09:56:00;35.10;;;22.20;;
10469;SDS011;5282;47.052;15.458;2022-12-07T09:58:28;32.70;;;20.27;;
10469;SDS011;5282;47.052;15.458;2022-12-07T10:00:59;28.97;;;19.20;;
10469;SDS011;5282;47.052;15.458;2022-12-07T10:03:31;31.80;;;19.93;;
10469;SDS011;5282;47.052;15.458;2022-12-07T10:05:59;26.17;;;16.97;;
10469;SDS011;5282;47.052;15.458;2022-12-07T10:08:26;27.07;;;16.50;;
10469;SDS011;5282;47.052;15.458;2022-12-07T10:10:54;23.63;;;17.57;;
10469;SDS011;5282;47.052;15.458;2022-12-07T10:13:33;29.40;;;17.53;;
10469;SDS011;5282;47.052;15.458;2022-12-07T10:16:02;27.23;;;16.23;;
10469;SDS011;5282;47.052;15.458;2022-12-07T10:18:32;24.63;;;16.37;;
10469;SDS011;5282;47.052;15.458;2022-12-07T10:21:05;24.93;;;17.17;;
10469;SDS011;5282;47.052;15.458;2022-12-07T10:23:38;27.80;;;17.60;;
10469;SDS011;5282;47.052;15.458;2022-12-07T10:26:20;27.27;;;17.63;;
10469;SDS011;5282;47.052;15.458;2022-12-07T10:28:58;29.13;;;17.83;;
10469;SDS011;5282;47.052;15.458;2022-12-07T10:31:28;35.17;;;20.57;;
10469;SDS011;5282;47.052;15.458;2022-12-07T10:33:56;34.37;;;20.23;;
10469;SDS011;5282;47.052;15.458;2022-12-07T10:36:25;33.40;;;20.00;;
10469;SDS011;5282;47.052;15.458;2022-12-07T10:38:59;27.07;;;17.50;;
10469;SDS011;5282;47.052;15.458;2022-12-07T10:41:28;24.00;;;16.37;;
10469;SDS011;5282;47.052;15.458;2022-12-07T10:43:56;26.93;;;16.80;;
10469;SDS011;5282;47.052;15.458;2022-12-07T10:55:33;29.80;;;18.07;;
10469;SDS011;5282;47.052;15.458;2022-12-07T10:58:19;24.87;;;16.63;;
10469;SDS011;5282;47.052;15.458;2022-12-07T11:00:55;35.73;;;18.67;;
10469;SDS011;5282;47.052;15.458;2022-12-07T11:03:41;23.77;;;17.57;;
10469;SDS011;5282;47.052;15.458;2022-12-07T11:06:23;26.37;;;17.93;;
10469;SDS011;5282;47.052;15.458;2022-12-07T11:09:05;22.60;;;17.80;;
10469;SDS011;5282;47.052;15.458;2022-12-07T11:11:57;23.67;;;16.83;;
10469;SDS011;5282;47.052;15.458;2022-12-07T11:14:34;25.47;;;16.30;;
10469;SDS011;5282;47.052;15.458;2022-12-07T11:17:07;22.80;;;15.83;;
10469;SDS011;5282;47.052;15.458;2022-12-07T11:19:44;20.93;;;16.93;;
10469;SDS011;5282;47.052;15.458;2022-12-07T11:22:23;22.73;;;16.93;;
10469;SDS011;5282;47.052;15.458;2022-12-07T11:25:02;22.33;;;16.97;;
10469;SDS011;5282;47.052;15.458;2022-12-07T11:27:45;26.60;;;16.47;;
10469;SDS011;5282;47.052;15.458;2022-12-07T11:30:22;24.30;;;17.57;;
10469;SDS011;5282;47.052;15.458;2022-12-07T11:32:57;22.93;;;17.10;;
10469;SDS011;5282;47.052;15.458;2022-12-07T11:35:39;23.23;;;16.47;;
10469;SDS011;5282;47.052;15.458;2022-12-07T11:38:17;23.20;;;16.07;;
10469;SDS011;5282;47.052;15.458;2022-12-07T11:40:48;22.80;;;17.17;;
10469;SDS011;5282;47.052;15.458;2022-12-07T11:43:19;24.07;;;16.20;;
10469;SDS011;5282;47.052;15.458;2022-12-07T11:45:51;22.20;;;17.23;;
10469;SDS011;5282;47.052;15.458;2022-12-07T11:48:24;27.13;;;17.37;;
10469;SDS011;5282;47.052;15.458;2022-12-07T11:50:59;28.67;;;18.27;;
10469;SDS011;5282;47.052;15.458;2022-12-07T11:53:32;25.43;;;17.30;;
10469;SDS011;5282;47.052;15.458;2022-12-07T11:56:06;27.27;;;17.40;;
10469;SDS011;5282;47.052;15.458;2022-12-07T11:58:39;29.27;;;17.90;;
10469;SDS011;5282;47.052;15.458;2022-12-07T12:01:14;31.00;;;18.60;;
10469;SDS011;5282;47.052;15.458;2022-12-07T12:03:52;26.23;;;18.00;;
10469;SDS011;5282;47.052;15.458;2022-12-07T12:06:24;27.10;;;18.57;;
10469;SDS011;5282;47.052;15.458;2022-12-07T12:08:53;30.90;;;18.57;;
10469;SDS011;5282;47.052;15.458;2022-12-07T12:11:35;24.60;;;17.50;;
10469;SDS011;5282;47.052;15.458;2022-12-07T12:14:18;28.10;;;17.00;;
10469;SDS011;5282;47.052;15.458;2022-12-07T12:20:01;25.37;;;17.20;;
10469;SDS011;5282;47.052;15.458;2022-12-07T12:22:34;29.33;;;17.17;;
10469;SDS011;5282;47.052;15.458;2022-12-07T12:25:12;26.87;;;17.43;;
10469;SDS011;5282;47.052;15.458;2022-12-07T12:27:46;26.80;;;16.63;;
10469;SDS011;5282;47.052;15.458;2022-12-07T12:30:26;27.20;;;16.53;;
10469;SDS011;5282;47.052;15.458;2022-12-07T12:33:01;26.70;;;17.13;;
10469;SDS011;5282;47.052;15.458;2022-12-07T12:35:31;21.97;;;16.63;;
10469;SDS011;5282;47.052;15.458;2022-12-07T12:38:21;26.47;;;17.13;;
10469;SDS011;5282;47.052;15.458;2022-12-07T12:40:54;24.10;;;16.03;;
10469;SDS011;5282;47.052;15.458;2022-12-07T12:58:32;20.90;;;15.60;;
10469;SDS011;5282;47.052;15.458;2022-12-07T13:04:14;22.37;;;15.43;;
10469;SDS011;5282;47.052;15.458;2022-12-07T13:06:52;18.00;;;15.17;;
10469;SDS011;5282;47.052;15.458;2022-12-07T13:09:20;23.90;;;15.60;;
10469;SDS011;5282;47.052;15.458;2022-12-07T13:11:54;17.97;;;15.20;;
10469;SDS011;5282;47.052;15.458;2022-12-07T13:14:41;21.67;;;14.63;;
10469;SDS011;5282;47.052;15.458;2022-12-07T13:23:30;24.40;;;15.90;;
10469;SDS011;5282;47.052;15.458;2022-12-07T13:26:15;17.73;;;14.30;;
10469;SDS011;5282;47.052;15.458;2022-12-07T13:28:47;19.90;;;14.77;;
10469;SDS011;5282;47.052;15.458;2022-12-07T13:31:32;18.77;;;14.43;;
10469;SDS011;5282;47.052;15.458;2022-12-07T13:34:02;19.30;;;14.17;;
10469;SDS011;5282;47.052;15.458;2022-12-07T13:36:30;15.53;;;13.93;;
10469;SDS011;5282;47.052;15.458;2022-12-07T13:39:10;22.00;;;14.97;;
10469;SDS011;5282;47.052;15.458;2022-12-07T13:41:44;19.73;;;14.90;;
10469;SDS011;5282;47.052;15.458;2022-12-07T13:44:13;20.37;;;15.00;;
10469;SDS011;5282;47.052;15.458;2022-12-07T13:46:44;16.93;;;14.13;;
10469;SDS011;5282;47.052;15.458;2022-12-07T13:49:18;18.57;;;14.57;;
10469;SDS011;5282;47.052;15.458;2022-12-07T13:51:47;15.93;;;14.00;;
10469;SDS011;5282;47.052;15.458;2022-12-07T13:54:19;15.13;;;13.60;;
10469;SDS011;5282;47.052;15.458;2022-12-07T13:56:49;18.53;;;13.97;;
10469;SDS011;5282;47.052;15.458;2022-12-07T13:59:19;21.47;;;13.87;;
10469;SDS011;5282;47.052;15.458;2022-12-07T14:01:50;19.83;;;14.43;;
10469;SDS011;5282;47.052;15.458;2022-12-07T14:04:31;19.70;;;14.30;;
10469;SDS011;5282;47.052;15.458;2022-12-07T14:07:18;14.60;;;13.17;;
10469;SDS011;5282;47.052;15.458;2022-12-07T14:09:54;16.27;;;13.77;;
10469;SDS011;5282;47.052;15.458;2022-12-07T14:12:23;20.20;;;14.73;;
10469;SDS011;5282;47.052;15.458;2022-12-07T14:14:52;18.53;;;14.03;;
10469;SDS011;5282;47.052;15.458;2022-12-07T14:17:20;19.27;;;14.77;;
10469;SDS011;5282;47.052;15.458;2022-12-07T14:19:49;20.60;;;14.43;;
10469;SDS011;5282;47.052;15.458;2022-12-07T14:22:24;19.53;;;14.80;;
10469;SDS011;5282;47.052;15.458;2022-12-07T14:27:50;16.47;;;13.80;;
10469;SDS011;5282;47.052;15.458;2022-12-07T14:30:23;23.83;;;15.27;;
10469;SDS011;5282;47.052;15.458;2022-12-07T14:32:52;18.00;;;15.00;;
10469;SDS011;5282;47.052;15.458;2022-12-07T14:35:21;21.70;;;15.70;;
10469;SDS011;5282;47.052;15.458;2022-12-07T14:37:48;20.03;;;15.20;;
10469;SDS011;5282;47.052;15.458;2022-12-07T14:40:17;23.13;;;16.13;;
10469;SDS011;5282;47.052;15.458;2022-12-07T14:42:45;20.13;;;15.97;;
10469;SDS011;5282;47.052;15.458;2022-12-07T14:45:17;18.07;;;15.23;;
10469;SDS011;5282;47.052;15.458;2022-12-07T14:47:47;19.27;;;15.20;;
10469;SDS011;5282;47.052;15.458;2022-12-07T14:50:16;20.77;;;14.43;;
10469;SDS011;5282;47.052;15.458;2022-12-07T14:52:45;23.33;;;16.53;;
10469;SDS011;5282;47.052;15.458;2022-12-07T14:55:16;23.27;;;16.50;;
10469;SDS011;5282;47.052;15.458;2022-12-07T14:57:51;18.30;;;14.80;;
10469;SDS011;5282;47.052;15.458;2022-12-07T15:00:19;18.57;;;15.97;;
10469;SDS011;5282;47.052;15.458;2022-12-07T15:02:49;24.80;;;17.00;;
10469;SDS011;5282;47.052;15.458;2022-12-07T15:05:16;24.63;;;19.33;;
10469;SDS011;5282;47.052;15.458;2022-12-07T15:07:44;34.67;;;26.43;;
10469;SDS011;5282;47.052;15.458;2022-12-07T15:10:13;36.03;;;26.13;;
10469;SDS011;5282;47.052;15.458;2022-12-07T15:12:43;24.00;;;19.77;;
10469;SDS011;5282;47.052;15.458;2022-12-07T15:15:10;19.77;;;16.80;;
10469;SDS011;5282;47.052;15.458;2022-12-07T15:17:37;23.43;;;17.97;;
10469;SDS011;5282;47.052;15.458;2022-12-07T15:20:07;20.47;;;16.50;;
10469;SDS011;5282;47.052;15.458;2022-12-07T15:22:38;19.30;;;16.93;;
10469;SDS011;5282;47.052;15.458;2022-12-07T15:25:05;21.03;;;16.40;;
10469;SDS011;5282;47.052;15.458;2022-12-07T15:27:33;20.20;;;16.03;;
10469;SDS011;5282;47.052;15.458;2022-12-07T15:30:00;19.67;;;16.10;;